首页
METAR-TAF:

METAR-TAF

机场 :

布雷西亚Ghedi, 意大利

纬度: 45-25N, 经度: 010-17E, 海拔: 102米

当前天气观测

该预报发布于43分钟前的08:55 UTC
风速4节,风向西南
温度 22°C
湿度 57%
气压 1017 hPa
能见度10公里或以上
1500米以下无云,无积雨云

METAR: LIPL 010855Z 23004KT CAVOK 22/13 Q1017 RMK SKC VIS MIN 9999 WIND THR31 21003KT WIND THR13 26004KT BLU

时间: 11:38 (09:38 UTC)

预报

该预报发布于1小时和38分钟前的08:00 UTC
预报有效从01日的 09点(UTC)到 01日的 18点(UTC)
风速4节,风向南转南东
能见度10公里或以上
1500米以下无云,无积雨云

TAF: LIPL 010800Z 0109/0118 16004KT CAVOK

超过4000个机场的气象观测和天气预报(METAR&TAF报告)。

可查询的气象台以黄色和红色小点在地图上表示。

将鼠标移到小点上方,可查看气象台名称。

然后点击查看天气观测和预报。

如需切换地图:点击带黑十字的绿色按钮放大地图;点击带横线的绿色按钮缩小地图;或者点击绿色箭头查看邻近地区的地图。


METAR-TAF: